Kiana, AK

5:58 PM AKST on December 09, 2016 (GMT -0900)
Wien Memorial | | Change Station

Elev 16 ft 66.88 °N, 162.60 °W | Updated 5 minutes ago

Clear
Clear
-9 °F
Feels Like -20 °F
N
5
Wind Variable Wind from ENE

Today
High -- | Low -- °F
--% Chance of Precip.
Yesterday
High -- | Low -- °F
Precip. -- in
Pressure 30.54 in
Visibility 10.0 miles
Clouds Clear
Windchill -20 °F
Dew Point -16 °F
Humidity 71%
Rainfall 0.00 in
Snow Depth Not available.
12:30 PM 2:55 PM
Waxing Gibbous, 79% visible
METAR PAOT 100253Z 06004KT 10SM CLR M23/M27 A3054 RMK AO2 SLP342 T12281267 55004
Pressure 30.54 in
Visibility 10.0 miles
Clouds Clear
Windchill -20 °F
Dew Point -16 °F
Humidity 71%
Rainfall 0.00 in
Snow Depth Not available.
12:30 PM 2:55 PM
Waxing Gibbous, 79% visible
METAR PAOT 100253Z 06004KT 10SM CLR M23/M27 A3054 RMK AO2 SLP342 T12281267 55004

10-Day Weather Forecast

Almanac

Astronomy

Dec. 09, 2016 Rise Set
Actual Time
Civil Twilight
Nautical Twilight
Astronomical Twilight
Moon
Length of Visible Light
Length of Day
Tomorrow will be .
, % of the Moon is Illuminated

Today's Extremes

State Highs State Lows

Community

WunderPhotos

Upload Photos

1,956,532 photos uploaded!

WunderBlog® & News

Nearby

Air Quality

  Air Quality AQ Index Pollutant
Not available.

Snow Depth

Station Depth Elevation

Earthquake Activity

City Distance Mag. Time & Date
Minimum magnitude displayed is 2.5.

Coastal Water Temperatures

Place Temperature

Stations

Nearby Weather Stations

Station Location Temp. Windchill Dew Point Humidity Wind Precip. Elev Updated Type
                   

Watches & Warnings

There are currently no watches in effect.